sensor_id;sensor_type;location;lat;lon;timestamp;P1;durP1;ratioP1;P2;durP2;ratioP2
50337;SDS011;46221;51.178;5.900;2023-03-03T00:00:56;11.77;;;7.88;;
50337;SDS011;46221;51.178;5.900;2023-03-03T00:03:23;13.50;;;7.85;;
50337;SDS011;46221;51.178;5.900;2023-03-03T00:05:51;12.85;;;8.25;;
50337;SDS011;46221;51.178;5.900;2023-03-03T00:08:19;10.75;;;7.70;;
50337;SDS011;46221;51.178;5.900;2023-03-03T00:10:47;11.80;;;7.97;;
50337;SDS011;46221;51.178;5.900;2023-03-03T00:13:18;10.63;;;7.72;;
50337;SDS011;46221;51.178;5.900;2023-03-03T00:15:47;11.40;;;7.63;;
50337;SDS011;46221;51.178;5.900;2023-03-03T00:18:21;10.68;;;7.78;;
50337;SDS011;46221;51.178;5.900;2023-03-03T00:20:53;11.60;;;7.85;;
50337;SDS011;46221;51.178;5.900;2023-03-03T00:26:14;9.77;;;7.10;;
50337;SDS011;46221;51.178;5.900;2023-03-03T00:28:54;12.07;;;7.80;;
50337;SDS011;46221;51.178;5.900;2023-03-03T00:31:25;13.50;;;7.88;;
50337;SDS011;46221;51.178;5.900;2023-03-03T00:34:01;15.05;;;9.70;;
50337;SDS011;46221;51.178;5.900;2023-03-03T00:36:42;13.10;;;8.63;;
50337;SDS011;46221;51.178;5.900;2023-03-03T00:39:16;12.45;;;8.20;;
50337;SDS011;46221;51.178;5.900;2023-03-03T00:46:54;14.20;;;8.70;;
50337;SDS011;46221;51.178;5.900;2023-03-03T00:49:23;14.35;;;9.48;;
50337;SDS011;46221;51.178;5.900;2023-03-03T00:51:52;14.07;;;9.48;;
50337;SDS011;46221;51.178;5.900;2023-03-03T00:54:19;16.38;;;10.80;;
50337;SDS011;46221;51.178;5.900;2023-03-03T00:56:46;17.55;;;10.20;;
50337;SDS011;46221;51.178;5.900;2023-03-03T00:59:12;16.58;;;9.77;;
50337;SDS011;46221;51.178;5.900;2023-03-03T01:01:38;19.15;;;11.75;;
50337;SDS011;46221;51.178;5.900;2023-03-03T01:04:05;15.52;;;9.27;;
50337;SDS011;46221;51.178;5.900;2023-03-03T01:06:31;16.27;;;10.50;;
50337;SDS011;46221;51.178;5.900;2023-03-03T01:08:58;15.75;;;10.65;;
50337;SDS011;46221;51.178;5.900;2023-03-03T01:11:24;16.67;;;10.82;;
50337;SDS011;46221;51.178;5.900;2023-03-03T01:13:53;17.95;;;11.02;;
50337;SDS011;46221;51.178;5.900;2023-03-03T01:16:20;14.98;;;10.55;;
50337;SDS011;46221;51.178;5.900;2023-03-03T01:18:46;17.30;;;11.18;;
50337;SDS011;46221;51.178;5.900;2023-03-03T01:21:13;18.42;;;11.13;;
50337;SDS011;46221;51.178;5.900;2023-03-03T01:23:39;19.38;;;11.27;;
50337;SDS011;46221;51.178;5.900;2023-03-03T01:26:06;19.05;;;11.75;;
50337;SDS011;46221;51.178;5.900;2023-03-03T01:28:33;19.45;;;12.60;;
50337;SDS011;46221;51.178;5.900;2023-03-03T01:31:04;19.85;;;12.48;;
50337;SDS011;46221;51.178;5.900;2023-03-03T01:33:31;19.80;;;12.60;;
50337;SDS011;46221;51.178;5.900;2023-03-03T01:35:58;17.88;;;12.02;;
50337;SDS011;46221;51.178;5.900;2023-03-03T01:38:25;19.45;;;13.02;;
50337;SDS011;46221;51.178;5.900;2023-03-03T01:40:52;22.50;;;13.52;;
50337;SDS011;46221;51.178;5.900;2023-03-03T01:43:20;19.98;;;12.75;;
50337;SDS011;46221;51.178;5.900;2023-03-03T01:48:15;18.40;;;12.77;;
50337;SDS011;46221;51.178;5.900;2023-03-03T01:50:55;21.30;;;12.98;;
50337;SDS011;46221;51.178;5.900;2023-03-03T01:53:33;21.65;;;13.13;;
50337;SDS011;46221;51.178;5.900;2023-03-03T01:56:04;20.42;;;13.15;;
50337;SDS011;46221;51.178;5.900;2023-03-03T01:58:49;21.40;;;13.93;;
50337;SDS011;46221;51.178;5.900;2023-03-03T02:01:22;22.20;;;14.20;;
50337;SDS011;46221;51.178;5.900;2023-03-03T02:03:51;21.27;;;13.77;;
50337;SDS011;46221;51.178;5.900;2023-03-03T02:06:19;19.90;;;13.38;;
50337;SDS011;46221;51.178;5.900;2023-03-03T02:08:52;18.63;;;12.48;;
50337;SDS011;46221;51.178;5.900;2023-03-03T02:11:24;18.60;;;12.02;;
50337;SDS011;46221;51.178;5.900;2023-03-03T02:13:54;19.70;;;12.57;;
50337;SDS011;46221;51.178;5.900;2023-03-03T02:16:21;21.67;;;13.85;;
50337;SDS011;46221;51.178;5.900;2023-03-03T02:18:47;19.30;;;13.23;;
50337;SDS011;46221;51.178;5.900;2023-03-03T02:21:15;19.05;;;12.75;;
50337;SDS011;46221;51.178;5.900;2023-03-03T02:26:29;17.60;;;12.13;;
50337;SDS011;46221;51.178;5.900;2023-03-03T02:28:57;17.63;;;12.25;;
50337;SDS011;46221;51.178;5.900;2023-03-03T02:31:25;19.10;;;12.50;;
50337;SDS011;46221;51.178;5.900;2023-03-03T02:33:53;18.30;;;11.20;;
50337;SDS011;46221;51.178;5.900;2023-03-03T02:36:22;18.02;;;11.85;;
50337;SDS011;46221;51.178;5.900;2023-03-03T02:38:52;18.60;;;12.10;;
50337;SDS011;46221;51.178;5.900;2023-03-03T02:44:28;19.17;;;12.93;;
50337;SDS011;46221;51.178;5.900;2023-03-03T02:46:56;18.55;;;12.57;;
50337;SDS011;46221;51.178;5.900;2023-03-03T02:49:24;16.75;;;11.23;;
50337;SDS011;46221;51.178;5.900;2023-03-03T02:51:52;17.50;;;11.55;;
50337;SDS011;46221;51.178;5.900;2023-03-03T02:54:20;15.07;;;10.73;;
50337;SDS011;46221;51.178;5.900;2023-03-03T02:56:48;18.30;;;11.95;;
50337;SDS011;46221;51.178;5.900;2023-03-03T02:59:15;15.88;;;10.98;;
50337;SDS011;46221;51.178;5.900;2023-03-03T03:01:43;16.70;;;11.00;;
50337;SDS011;46221;51.178;5.900;2023-03-03T03:04:14;17.80;;;11.32;;
50337;SDS011;46221;51.178;5.900;2023-03-03T03:06:42;16.33;;;10.80;;
50337;SDS011;46221;51.178;5.900;2023-03-03T03:09:10;18.35;;;11.38;;
50337;SDS011;46221;51.178;5.900;2023-03-03T03:11:38;18.58;;;11.65;;
50337;SDS011;46221;51.178;5.900;2023-03-03T03:14:05;16.95;;;11.15;;
50337;SDS011;46221;51.178;5.900;2023-03-03T03:16:33;16.48;;;11.95;;
50337;SDS011;46221;51.178;5.900;2023-03-03T03:19:00;16.48;;;11.10;;
50337;SDS011;46221;51.178;5.900;2023-03-03T03:21:28;16.15;;;11.30;;
50337;SDS011;46221;51.178;5.900;2023-03-03T03:23:55;17.35;;;10.93;;
50337;SDS011;46221;51.178;5.900;2023-03-03T03:26:22;16.75;;;11.45;;
50337;SDS011;46221;51.178;5.900;2023-03-03T03:28:49;16.77;;;11.07;;
50337;SDS011;46221;51.178;5.900;2023-03-03T03:31:16;17.25;;;10.88;;
50337;SDS011;46221;51.178;5.900;2023-03-03T03:33:45;15.38;;;10.82;;
50337;SDS011;46221;51.178;5.900;2023-03-03T03:36:11;15.43;;;10.77;;
50337;SDS011;46221;51.178;5.900;2023-03-03T03:38:38;17.52;;;11.57;;
50337;SDS011;46221;51.178;5.900;2023-03-03T03:41:05;16.27;;;11.02;;
50337;SDS011;46221;51.178;5.900;2023-03-03T03:43:33;17.95;;;11.05;;
50337;SDS011;46221;51.178;5.900;2023-03-03T03:45:59;16.05;;;10.77;;
50337;SDS011;46221;51.178;5.900;2023-03-03T03:48:26;16.33;;;10.63;;
50337;SDS011;46221;51.178;5.900;2023-03-03T03:50:52;14.98;;;10.30;;
50337;SDS011;46221;51.178;5.900;2023-03-03T03:53:19;15.35;;;10.10;;
50337;SDS011;46221;51.178;5.900;2023-03-03T03:55:45;16.98;;;10.98;;
50337;SDS011;46221;51.178;5.900;2023-03-03T03:58:15;16.73;;;11.13;;
50337;SDS011;46221;51.178;5.900;2023-03-03T04:00:43;17.10;;;10.68;;
50337;SDS011;46221;51.178;5.900;2023-03-03T04:03:11;15.35;;;10.80;;
50337;SDS011;46221;51.178;5.900;2023-03-03T04:05:39;14.32;;;9.90;;
50337;SDS011;46221;51.178;5.900;2023-03-03T04:08:06;14.70;;;10.05;;
50337;SDS011;46221;51.178;5.900;2023-03-03T04:10:33;13.73;;;9.35;;
50337;SDS011;46221;51.178;5.900;2023-03-03T04:12:59;16.23;;;10.38;;
50337;SDS011;46221;51.178;5.900;2023-03-03T04:15:26;15.82;;;10.20;;
50337;SDS011;46221;51.178;5.900;2023-03-03T04:17:52;15.80;;;10.02;;
50337;SDS011;46221;51.178;5.900;2023-03-03T04:20:19;17.00;;;11.15;;
50337;SDS011;46221;51.178;5.900;2023-03-03T04:22:45;15.73;;;10.65;;
50337;SDS011;46221;51.178;5.900;2023-03-03T04:25:13;15.25;;;9.65;;
50337;SDS011;46221;51.178;5.900;2023-03-03T04:27:41;14.52;;;10.27;;
50337;SDS011;46221;51.178;5.900;2023-03-03T04:30:08;16.25;;;10.65;;
50337;SDS011;46221;51.178;5.900;2023-03-03T04:32:35;14.98;;;10.52;;
50337;SDS011;46221;51.178;5.900;2023-03-03T04:35:02;15.77;;;10.20;;
50337;SDS011;46221;51.178;5.900;2023-03-03T04:37:33;17.13;;;10.57;;
50337;SDS011;46221;51.178;5.900;2023-03-03T04:40:01;17.02;;;10.55;;
50337;SDS011;46221;51.178;5.900;2023-03-03T04:42:27;17.58;;;11.00;;
50337;SDS011;46221;51.178;5.900;2023-03-03T04:44:55;13.73;;;9.85;;
50337;SDS011;46221;51.178;5.900;2023-03-03T04:47:21;17.98;;;11.15;;
50337;SDS011;46221;51.178;5.900;2023-03-03T04:49:48;14.93;;;10.02;;
50337;SDS011;46221;51.178;5.900;2023-03-03T04:52:14;16.98;;;10.23;;
50337;SDS011;46221;51.178;5.900;2023-03-03T04:54:41;14.98;;;10.00;;
50337;SDS011;46221;51.178;5.900;2023-03-03T04:57:07;17.90;;;10.23;;
50337;SDS011;46221;51.178;5.900;2023-03-03T04:59:34;17.10;;;11.27;;
50337;SDS011;46221;51.178;5.900;2023-03-03T05:02:01;16.40;;;10.38;;
50337;SDS011;46221;51.178;5.900;2023-03-03T05:04:29;17.05;;;10.40;;
50337;SDS011;46221;51.178;5.900;2023-03-03T05:06:57;16.50;;;10.02;;
50337;SDS011;46221;51.178;5.900;2023-03-03T05:09:23;18.60;;;10.18;;
50337;SDS011;46221;51.178;5.900;2023-03-03T05:11:50;16.00;;;10.15;;
50337;SDS011;46221;51.178;5.900;2023-03-03T05:14:16;16.77;;;9.20;;
50337;SDS011;46221;51.178;5.900;2023-03-03T05:16:43;15.38;;;9.68;;
50337;SDS011;46221;51.178;5.900;2023-03-03T05:19:10;18.65;;;10.77;;
50337;SDS011;46221;51.178;5.900;2023-03-03T05:21:37;18.80;;;10.75;;
50337;SDS011;46221;51.178;5.900;2023-03-03T05:24:08;17.48;;;9.57;;
50337;SDS011;46221;51.178;5.900;2023-03-03T05:26:35;17.77;;;9.85;;
50337;SDS011;46221;51.178;5.900;2023-03-03T05:29:03;21.67;;;11.35;;
50337;SDS011;46221;51.178;5.900;2023-03-03T05:31:29;18.98;;;11.25;;
50337;SDS011;46221;51.178;5.900;2023-03-03T05:33:56;16.90;;;9.93;;
50337;SDS011;46221;51.178;5.900;2023-03-03T05:36:23;19.60;;;10.32;;
50337;SDS011;46221;51.178;5.900;2023-03-03T05:38:50;17.70;;;10.55;;
50337;SDS011;46221;51.178;5.900;2023-03-03T05:41:16;17.08;;;10.05;;
50337;SDS011;46221;51.178;5.900;2023-03-03T05:43:43;21.45;;;10.30;;
50337;SDS011;46221;51.178;5.900;2023-03-03T05:46:09;19.95;;;11.40;;
50337;SDS011;46221;51.178;5.900;2023-03-03T05:48:36;18.88;;;10.23;;
50337;SDS011;46221;51.178;5.900;2023-03-03T05:51:02;17.80;;;10.05;;
50337;SDS011;46221;51.178;5.900;2023-03-03T05:53:29;18.85;;;11.02;;
50337;SDS011;46221;51.178;5.900;2023-03-03T05:55:57;16.00;;;8.90;;
50337;SDS011;46221;51.178;5.900;2023-03-03T05:58:24;17.33;;;9.10;;
50337;SDS011;46221;51.178;5.900;2023-03-03T06:00:50;17.77;;;9.50;;
50337;SDS011;46221;51.178;5.900;2023-03-03T06:03:17;20.83;;;10.80;;
50337;SDS011;46221;51.178;5.900;2023-03-03T06:05:44;18.85;;;10.02;;
50337;SDS011;46221;51.178;5.900;2023-03-03T06:08:10;16.77;;;9.63;;
50337;SDS011;46221;51.178;5.900;2023-03-03T06:10:37;21.92;;;10.30;;
50337;SDS011;46221;51.178;5.900;2023-03-03T06:13:03;20.13;;;10.23;;
50337;SDS011;46221;51.178;5.900;2023-03-03T06:15:30;18.83;;;10.55;;
50337;SDS011;46221;51.178;5.900;2023-03-03T06:17:56;21.35;;;11.40;;
50337;SDS011;46221;51.178;5.900;2023-03-03T06:20:23;21.48;;;11.43;;
50337;SDS011;46221;51.178;5.900;2023-03-03T06:22:49;19.55;;;10.82;;
50337;SDS011;46221;51.178;5.900;2023-03-03T06:25:15;20.67;;;10.57;;
50337;SDS011;46221;51.178;5.900;2023-03-03T06:27:42;19.25;;;10.65;;
50337;SDS011;46221;51.178;5.900;2023-03-03T06:30:09;20.77;;;11.13;;
50337;SDS011;46221;51.178;5.900;2023-03-03T06:32:36;19.80;;;10.73;;
50337;SDS011;46221;51.178;5.900;2023-03-03T06:35:02;18.27;;;9.57;;
50337;SDS011;46221;51.178;5.900;2023-03-03T06:37:29;22.77;;;11.02;;
50337;SDS011;46221;51.178;5.900;2023-03-03T06:39:56;19.27;;;10.23;;
50337;SDS011;46221;51.178;5.900;2023-03-03T06:42:22;18.83;;;9.82;;
50337;SDS011;46221;51.178;5.900;2023-03-03T06:44:50;23.17;;;11.10;;
50337;SDS011;46221;51.178;5.900;2023-03-03T06:47:16;19.30;;;9.95;;
50337;SDS011;46221;51.178;5.900;2023-03-03T06:49:43;20.13;;;10.98;;
50337;SDS011;46221;51.178;5.900;2023-03-03T06:52:13;21.15;;;11.85;;
50337;SDS011;46221;51.178;5.900;2023-03-03T06:54:47;19.55;;;10.02;;
50337;SDS011;46221;51.178;5.900;2023-03-03T06:57:16;20.20;;;10.73;;
50337;SDS011;46221;51.178;5.900;2023-03-03T06:59:51;20.27;;;11.05;;
50337;SDS011;46221;51.178;5.900;2023-03-03T07:02:19;22.20;;;10.43;;
50337;SDS011;46221;51.178;5.900;2023-03-03T07:04:46;22.42;;;11.00;;
50337;SDS011;46221;51.178;5.900;2023-03-03T07:07:20;17.80;;;9.88;;
50337;SDS011;46221;51.178;5.900;2023-03-03T07:09:52;16.35;;;9.43;;
50337;SDS011;46221;51.178;5.900;2023-03-03T07:12:27;20.00;;;10.85;;
50337;SDS011;46221;51.178;5.900;2023-03-03T07:15:17;19.40;;;11.02;;
50337;SDS011;46221;51.178;5.900;2023-03-03T07:17:46;19.90;;;9.77;;
50337;SDS011;46221;51.178;5.900;2023-03-03T07:20:23;22.55;;;10.20;;
50337;SDS011;46221;51.178;5.900;2023-03-03T07:22:53;19.02;;;10.10;;
50337;SDS011;46221;51.178;5.900;2023-03-03T07:25:21;21.98;;;10.65;;
50337;SDS011;46221;51.178;5.900;2023-03-03T07:27:57;21.30;;;10.45;;
50337;SDS011;46221;51.178;5.900;2023-03-03T07:30:27;19.15;;;9.75;;
50337;SDS011;46221;51.178;5.900;2023-03-03T07:32:56;19.75;;;11.85;;
50337;SDS011;46221;51.178;5.900;2023-03-03T07:37:59;22.48;;;11.32;;
50337;SDS011;46221;51.178;5.900;2023-03-03T07:40:46;18.58;;;10.55;;
50337;SDS011;46221;51.178;5.900;2023-03-03T07:43:34;19.52;;;9.82;;
50337;SDS011;46221;51.178;5.900;2023-03-03T07:46:40;20.42;;;10.65;;
50337;SDS011;46221;51.178;5.900;2023-03-03T07:52:02;21.95;;;10.45;;
50337;SDS011;46221;51.178;5.900;2023-03-03T07:54:45;20.45;;;9.95;;
50337;SDS011;46221;51.178;5.900;2023-03-03T08:08:47;20.20;;;10.68;;
50337;SDS011;46221;51.178;5.900;2023-03-03T08:10:54;17.40;;;9.30;;
50337;SDS011;46221;51.178;5.900;2023-03-03T08:16:03;18.45;;;9.35;;
50337;SDS011;46221;51.178;5.900;2023-03-03T08:18:50;19.98;;;10.70;;
50337;SDS011;46221;51.178;5.900;2023-03-03T08:21:21;19.80;;;11.63;;
50337;SDS011;46221;51.178;5.900;2023-03-03T08:23:50;19.60;;;10.90;;
50337;SDS011;46221;51.178;5.900;2023-03-03T08:26:19;18.27;;;10.15;;
50337;SDS011;46221;51.178;5.900;2023-03-03T08:28:46;17.05;;;9.57;;
50337;SDS011;46221;51.178;5.900;2023-03-03T08:31:13;19.25;;;11.15;;
50337;SDS011;46221;51.178;5.900;2023-03-03T08:33:56;17.13;;;9.40;;
50337;SDS011;46221;51.178;5.900;2023-03-03T08:36:23;18.70;;;10.68;;
50337;SDS011;46221;51.178;5.900;2023-03-03T08:38:50;18.42;;;10.82;;
50337;SDS011;46221;51.178;5.900;2023-03-03T08:41:16;17.42;;;10.07;;
50337;SDS011;46221;51.178;5.900;2023-03-03T08:43:43;20.35;;;11.45;;
50337;SDS011;46221;51.178;5.900;2023-03-03T08:46:10;17.98;;;10.40;;
50337;SDS011;46221;51.178;5.900;2023-03-03T08:48:37;19.23;;;11.63;;
50337;SDS011;46221;51.178;5.900;2023-03-03T08:51:04;16.00;;;10.52;;
50337;SDS011;46221;51.178;5.900;2023-03-03T08:53:31;16.85;;;10.50;;
50337;SDS011;46221;51.178;5.900;2023-03-03T08:56:00;18.48;;;10.82;;
50337;SDS011;46221;51.178;5.900;2023-03-03T08:58:26;17.83;;;10.45;;
50337;SDS011;46221;51.178;5.900;2023-03-03T09:01:00;17.92;;;10.27;;
50337;SDS011;46221;51.178;5.900;2023-03-03T09:03:27;17.58;;;10.52;;
50337;SDS011;46221;51.178;5.900;2023-03-03T09:05:53;16.27;;;10.20;;
50337;SDS011;46221;51.178;5.900;2023-03-03T09:08:20;17.60;;;9.90;;
50337;SDS011;46221;51.178;5.900;2023-03-03T09:10:46;17.77;;;10.93;;
50337;SDS011;46221;51.178;5.900;2023-03-03T09:13:14;18.42;;;10.48;;
50337;SDS011;46221;51.178;5.900;2023-03-03T09:15:42;16.73;;;10.38;;
50337;SDS011;46221;51.178;5.900;2023-03-03T09:18:19;16.35;;;10.35;;
50337;SDS011;46221;51.178;5.900;2023-03-03T09:20:48;18.60;;;11.05;;
50337;SDS011;46221;51.178;5.900;2023-03-03T09:31:38;15.57;;;9.85;;
50337;SDS011;46221;51.178;5.900;2023-03-03T09:34:40;15.05;;;9.60;;
50337;SDS011;46221;51.178;5.900;2023-03-03T09:37:17;17.58;;;10.48;;
50337;SDS011;46221;51.178;5.900;2023-03-03T09:39:55;15.15;;;9.30;;
50337;SDS011;46221;51.178;5.900;2023-03-03T09:42:25;15.38;;;9.27;;
50337;SDS011;46221;51.178;5.900;2023-03-03T09:45:11;18.92;;;10.93;;
50337;SDS011;46221;51.178;5.900;2023-03-03T09:50:25;16.33;;;10.98;;
50337;SDS011;46221;51.178;5.900;2023-03-03T09:56:03;16.55;;;9.98;;
50337;SDS011;46221;51.178;5.900;2023-03-03T09:58:53;17.20;;;10.88;;
50337;SDS011;46221;51.178;5.900;2023-03-03T10:12:41;17.88;;;9.68;;
50337;SDS011;46221;51.178;5.900;2023-03-03T10:18:24;14.23;;;8.65;;
50337;SDS011;46221;51.178;5.900;2023-03-03T10:21:15;15.05;;;9.27;;
50337;SDS011;46221;51.178;5.900;2023-03-03T10:26:50;14.05;;;8.32;;
50337;SDS011;46221;51.178;5.900;2023-03-03T10:29:42;14.43;;;9.02;;
50337;SDS011;46221;51.178;5.900;2023-03-03T11:00:06;11.40;;;7.68;;
50337;SDS011;46221;51.178;5.900;2023-03-03T11:11:01;14.40;;;8.73;;
50337;SDS011;46221;51.178;5.900;2023-03-03T11:13:51;17.23;;;7.78;;
50337;SDS011;46221;51.178;5.900;2023-03-03T11:16:49;13.32;;;8.32;;
50337;SDS011;46221;51.178;5.900;2023-03-03T11:22:24;12.65;;;8.07;;
50337;SDS011;46221;51.178;5.900;2023-03-03T11:33:53;14.68;;;8.43;;
50337;SDS011;46221;51.178;5.900;2023-03-03T11:36:56;15.02;;;8.93;;
50337;SDS011;46221;51.178;5.900;2023-03-03T11:39:26;13.40;;;8.50;;
50337;SDS011;46221;51.178;5.900;2023-03-03T11:41:58;12.88;;;8.20;;
50337;SDS011;46221;51.178;5.900;2023-03-03T11:47:04;13.23;;;7.93;;
50337;SDS011;46221;51.178;5.900;2023-03-03T11:57:53;13.18;;;8.40;;
50337;SDS011;46221;51.178;5.900;2023-03-03T12:00:44;15.30;;;8.25;;
50337;SDS011;46221;51.178;5.900;2023-03-03T12:06:02;12.80;;;7.38;;
50337;SDS011;46221;51.178;5.900;2023-03-03T12:12:05;12.23;;;7.43;;
50337;SDS011;46221;51.178;5.900;2023-03-03T12:31:50;11.75;;;7.97;;
50337;SDS011;46221;51.178;5.900;2023-03-03T12:34:41;11.88;;;7.90;;
50337;SDS011;46221;51.178;5.900;2023-03-03T12:37:21;10.20;;;6.88;;
50337;SDS011;46221;51.178;5.900;2023-03-03T12:47:37;11.30;;;7.65;;
50337;SDS011;46221;51.178;5.900;2023-03-03T12:55:56;11.27;;;7.18;;
50337;SDS011;46221;51.178;5.900;2023-03-03T13:07:03;9.38;;;6.43;;
50337;SDS011;46221;51.178;5.900;2023-03-03T13:21:05;11.43;;;7.38;;
50337;SDS011;46221;51.178;5.900;2023-03-03T13:29:59;9.75;;;6.85;;
50337;SDS011;46221;51.178;5.900;2023-03-03T13:32:37;12.02;;;7.55;;
50337;SDS011;46221;51.178;5.900;2023-03-03T13:35:16;10.90;;;7.40;;
50337;SDS011;46221;51.178;5.900;2023-03-03T13:37:52;11.80;;;7.13;;
50337;SDS011;46221;51.178;5.900;2023-03-03T13:40:24;10.13;;;7.05;;
50337;SDS011;46221;51.178;5.900;2023-03-03T13:42:56;11.02;;;7.05;;
50337;SDS011;46221;51.178;5.900;2023-03-03T13:51:01;11.52;;;7.07;;
50337;SDS011;46221;51.178;5.900;2023-03-03T13:53:54;10.68;;;6.97;;
50337;SDS011;46221;51.178;5.900;2023-03-03T13:56:34;13.25;;;7.30;;
50337;SDS011;46221;51.178;5.900;2023-03-03T13:59:49;14.55;;;7.63;;
50337;SDS011;46221;51.178;5.900;2023-03-03T14:02:42;10.38;;;6.35;;
50337;SDS011;46221;51.178;5.900;2023-03-03T14:05:40;10.20;;;6.78;;
50337;SDS011;46221;51.178;5.900;2023-03-03T14:11:10;11.00;;;6.85;;
50337;SDS011;46221;51.178;5.900;2023-03-03T14:19:17;11.65;;;7.50;;
50337;SDS011;46221;51.178;5.900;2023-03-03T14:24:22;11.25;;;6.70;;
50337;SDS011;46221;51.178;5.900;2023-03-03T14:26:55;11.07;;;7.22;;
50337;SDS011;46221;51.178;5.900;2023-03-03T14:31:52;9.85;;;6.80;;
50337;SDS011;46221;51.178;5.900;2023-03-03T14:37:20;10.38;;;6.75;;
50337;SDS011;46221;51.178;5.900;2023-03-03T14:47:56;9.98;;;6.43;;
50337;SDS011;46221;51.178;5.900;2023-03-03T14:50:30;11.35;;;7.07;;
50337;SDS011;46221;51.178;5.900;2023-03-03T14:55:40;12.05;;;7.03;;
50337;SDS011;46221;51.178;5.900;2023-03-03T15:01:29;12.05;;;6.85;;
50337;SDS011;46221;51.178;5.900;2023-03-03T15:04:30;11.43;;;7.20;;
50337;SDS011;46221;51.178;5.900;2023-03-03T15:06:52;11.60;;;6.70;;
50337;SDS011;46221;51.178;5.900;2023-03-03T15:09:24;11.80;;;6.53;;
50337;SDS011;46221;51.178;5.900;2023-03-03T15:11:52;10.18;;;6.32;;
50337;SDS011;46221;51.178;5.900;2023-03-03T15:14:36;10.50;;;6.68;;
50337;SDS011;46221;51.178;5.900;2023-03-03T15:17:15;12.02;;;7.18;;
50337;SDS011;46221;51.178;5.900;2023-03-03T15:25:51;9.90;;;6.65;;
50337;SDS011;46221;51.178;5.900;2023-03-03T15:28:48;9.93;;;6.65;;
50337;SDS011;46221;51.178;5.900;2023-03-03T15:34:15;10.48;;;6.68;;
50337;SDS011;46221;51.178;5.900;2023-03-03T15:39:18;9.35;;;6.28;;
50337;SDS011;46221;51.178;5.900;2023-03-03T15:42:02;10.45;;;7.15;;
50337;SDS011;46221;51.178;5.900;2023-03-03T15:44:37;10.48;;;6.25;;
50337;SDS011;46221;51.178;5.900;2023-03-03T15:47:25;10.98;;;6.75;;
50337;SDS011;46221;51.178;5.900;2023-03-03T15:56:08;10.55;;;6.57;;
50337;SDS011;46221;51.178;5.900;2023-03-03T15:58:50;10.60;;;6.63;;
50337;SDS011;46221;51.178;5.900;2023-03-03T16:01:39;11.45;;;6.25;;
50337;SDS011;46221;51.178;5.900;2023-03-03T16:04:12;12.43;;;6.10;;
50337;SDS011;46221;51.178;5.900;2023-03-03T16:06:46;10.18;;;6.32;;
50337;SDS011;46221;51.178;5.900;2023-03-03T16:12:25;9.02;;;6.10;;
50337;SDS011;46221;51.178;5.900;2023-03-03T16:18:10;12.27;;;5.90;;
50337;SDS011;46221;51.178;5.900;2023-03-03T16:20:53;10.63;;;6.45;;
50337;SDS011;46221;51.178;5.900;2023-03-03T16:23:47;12.50;;;6.68;;
50337;SDS011;46221;51.178;5.900;2023-03-03T16:31:42;12.45;;;8.05;;
50337;SDS011;46221;51.178;5.900;2023-03-03T16:34:23;12.90;;;8.10;;
50337;SDS011;46221;51.178;5.900;2023-03-03T16:39:51;15.60;;;8.90;;
50337;SDS011;46221;51.178;5.900;2023-03-03T16:42:28;14.40;;;8.98;;
50337;SDS011;46221;51.178;5.900;2023-03-03T17:04:13;11.20;;;6.43;;
50337;SDS011;46221;51.178;5.900;2023-03-03T17:06:53;13.55;;;7.07;;
50337;SDS011;46221;51.178;5.900;2023-03-03T17:12:30;13.35;;;6.78;;
50337;SDS011;46221;51.178;5.900;2023-03-03T17:20:50;12.70;;;6.72;;
50337;SDS011;46221;51.178;5.900;2023-03-03T17:23:41;10.80;;;5.80;;
50337;SDS011;46221;51.178;5.900;2023-03-03T17:26:29;10.95;;;6.88;;
50337;SDS011;46221;51.178;5.900;2023-03-03T17:29:25;12.82;;;6.47;;
50337;SDS011;46221;51.178;5.900;2023-03-03T17:40:11;13.70;;;6.70;;
50337;SDS011;46221;51.178;5.900;2023-03-03T17:45:20;11.30;;;6.65;;
50337;SDS011;46221;51.178;5.900;2023-03-03T17:48:08;13.75;;;6.63;;
50337;SDS011;46221;51.178;5.900;2023-03-03T17:51:05;12.65;;;6.22;;
50337;SDS011;46221;51.178;5.900;2023-03-03T17:57:05;21.65;;;6.72;;
50337;SDS011;46221;51.178;5.900;2023-03-03T17:59:39;15.47;;;7.20;;
50337;SDS011;46221;51.178;5.900;2023-03-03T18:02:30;18.00;;;7.43;;
50337;SDS011;46221;51.178;5.900;2023-03-03T18:11:01;10.00;;;5.93;;
50337;SDS011;46221;51.178;5.900;2023-03-03T18:22:57;14.88;;;7.05;;
50337;SDS011;46221;51.178;5.900;2023-03-03T18:25:14;13.75;;;7.38;;
50337;SDS011;46221;51.178;5.900;2023-03-03T18:27:42;16.73;;;7.90;;
50337;SDS011;46221;51.178;5.900;2023-03-03T18:30:25;16.08;;;6.78;;
50337;SDS011;46221;51.178;5.900;2023-03-03T18:37:51;15.52;;;7.45;;
50337;SDS011;46221;51.178;5.900;2023-03-03T18:40:27;14.20;;;7.18;;
50337;SDS011;46221;51.178;5.900;2023-03-03T18:42:56;15.30;;;7.30;;
50337;SDS011;46221;51.178;5.900;2023-03-03T18:48:11;18.73;;;7.95;;
50337;SDS011;46221;51.178;5.900;2023-03-03T18:55:39;18.42;;;7.55;;
50337;SDS011;46221;51.178;5.900;2023-03-03T19:03:23;14.57;;;8.07;;
50337;SDS011;46221;51.178;5.900;2023-03-03T19:05:58;17.95;;;8.30;;
50337;SDS011;46221;51.178;5.900;2023-03-03T19:08:43;17.92;;;8.25;;
50337;SDS011;46221;51.178;5.900;2023-03-03T19:16:46;16.20;;;9.23;;
50337;SDS011;46221;51.178;5.900;2023-03-03T19:19:15;15.90;;;7.80;;
50337;SDS011;46221;51.178;5.900;2023-03-03T19:21:44;16.17;;;8.18;;
50337;SDS011;46221;51.178;5.900;2023-03-03T19:24:26;14.80;;;8.57;;
50337;SDS011;46221;51.178;5.900;2023-03-03T19:32:10;15.68;;;8.15;;
50337;SDS011;46221;51.178;5.900;2023-03-03T19:38:03;17.55;;;8.32;;
50337;SDS011;46221;51.178;5.900;2023-03-03T19:40:49;15.52;;;8.60;;
50337;SDS011;46221;51.178;5.900;2023-03-03T19:43:34;13.65;;;7.45;;
50337;SDS011;46221;51.178;5.900;2023-03-03T19:46:28;12.85;;;7.82;;
50337;SDS011;46221;51.178;5.900;2023-03-03T19:51:56;15.52;;;8.55;;
50337;SDS011;46221;51.178;5.900;2023-03-03T19:57:04;13.10;;;7.28;;
50337;SDS011;46221;51.178;5.900;2023-03-03T20:14:05;13.38;;;8.73;;
50337;SDS011;46221;51.178;5.900;2023-03-03T20:16:46;11.75;;;7.43;;
50337;SDS011;46221;51.178;5.900;2023-03-03T20:22:03;14.90;;;8.30;;
50337;SDS011;46221;51.178;5.900;2023-03-03T20:25:24;15.63;;;9.13;;
50337;SDS011;46221;51.178;5.900;2023-03-03T20:27:30;14.23;;;7.78;;
50337;SDS011;46221;51.178;5.900;2023-03-03T20:33:21;13.57;;;7.78;;
50337;SDS011;46221;51.178;5.900;2023-03-03T20:38:58;14.80;;;7.50;;
50337;SDS011;46221;51.178;5.900;2023-03-03T20:44:40;14.60;;;8.45;;
50337;SDS011;46221;51.178;5.900;2023-03-03T20:55:30;15.57;;;8.20;;
50337;SDS011;46221;51.178;5.900;2023-03-03T21:01:05;12.55;;;7.65;;
50337;SDS011;46221;51.178;5.900;2023-03-03T21:03:43;16.63;;;8.35;;
50337;SDS011;46221;51.178;5.900;2023-03-03T21:06:12;13.57;;;8.10;;
50337;SDS011;46221;51.178;5.900;2023-03-03T21:11:15;13.55;;;8.30;;
50337;SDS011;46221;51.178;5.900;2023-03-03T21:13:45;12.82;;;7.85;;
50337;SDS011;46221;51.178;5.900;2023-03-03T21:18:55;13.63;;;8.00;;
50337;SDS011;46221;51.178;5.900;2023-03-03T21:21:26;12.73;;;7.97;;
50337;SDS011;46221;51.178;5.900;2023-03-03T21:23:55;11.73;;;7.53;;
50337;SDS011;46221;51.178;5.900;2023-03-03T21:31:58;13.77;;;8.35;;
50337;SDS011;46221;51.178;5.900;2023-03-03T21:36:59;12.52;;;7.53;;
50337;SDS011;46221;51.178;5.900;2023-03-03T21:39:28;13.88;;;7.90;;
50337;SDS011;46221;51.178;5.900;2023-03-03T21:41:59;13.13;;;7.78;;